createdAt,value
2016-06-05T00:00:09.852Z,62.93
2016-06-05T00:01:09.855Z,62.74
2016-06-05T00:02:09.889Z,62.74
2016-06-05T00:03:09.907Z,62.93
2016-06-05T00:04:09.941Z,62.84
2016-06-05T00:05:09.959Z,62.84
2016-06-05T00:06:09.978Z,62.84
2016-06-05T00:07:10.011Z,62.84
2016-06-05T00:08:10.045Z,63.02
2016-06-05T00:09:10.064Z,62.77
2016-06-05T00:10:10.082Z,62.84
2016-06-05T00:11:10.116Z,62.84
2016-06-05T00:12:10.135Z,62.93
2016-06-05T00:13:10.013Z,62.84
2016-06-05T00:14:10.187Z,63.12
2016-06-05T00:15:10.220Z,63.12
2016-06-05T00:16:10.238Z,62.93
2016-06-05T00:17:10.273Z,62.93
2016-06-05T00:18:10.307Z,62.74
2016-06-05T00:19:10.310Z,62.93
2016-06-05T00:20:10.343Z,62.93
2016-06-05T00:21:10.362Z,62.93
2016-06-05T00:22:10.396Z,63.02
2016-06-05T00:23:10.414Z,62.84
2016-06-05T00:24:10.448Z,62.84
2016-06-05T00:25:10.467Z,63.02
2016-06-05T00:26:10.345Z,62.84
2016-06-05T00:27:10.518Z,62.93
2016-06-05T00:28:10.553Z,62.74
2016-06-05T00:29:10.570Z,62.93
2016-06-05T00:30:10.605Z,63.02
2016-06-05T00:31:10.639Z,62.84
2016-06-05T00:32:10.641Z,62.84
2016-06-05T00:33:10.675Z,63.02
2016-06-05T00:34:10.694Z,62.74
2016-06-05T00:35:10.727Z,62.84
2016-06-05T00:36:10.746Z,62.84
2016-06-05T00:37:10.764Z,62.84
2016-06-05T00:38:10.798Z,62.84
2016-06-05T00:39:10.832Z,63.06
2016-06-05T00:40:10.850Z,62.55
2016-06-05T00:41:10.869Z,62.93
2016-06-05T00:42:10.903Z,62.93
2016-06-05T00:43:10.999Z,62.93
2016-06-05T00:44:10.954Z,63.02
2016-06-05T00:45:10.974Z,62.84
2016-06-05T00:46:10.851Z,63.02
2016-06-05T00:47:11.025Z,62.93
2016-06-05T00:48:11.059Z,63.12
2016-06-05T00:49:11.077Z,62.93
2016-06-05T00:50:11.096Z,62.96
2016-06-05T00:51:11.130Z,62.74
2016-06-05T00:52:11.164Z,62.74
2016-06-05T00:53:11.182Z,63.06
2016-06-05T00:54:11.201Z,62.93
2016-06-05T00:55:11.234Z,62.74
2016-06-05T00:56:11.253Z,63.02
2016-06-05T00:57:11.287Z,63.12
2016-06-05T00:58:11.915Z,63.02
2016-06-05T00:59:11.339Z,62.93
2016-06-05T01:00:11.357Z,62.93
2016-06-05T01:01:11.392Z,63.02
2016-06-05T01:02:11.409Z,62.84
2016-06-05T01:03:11.458Z,63.02
2016-06-05T01:04:11.462Z,62.45
2016-06-05T01:05:11.480Z,63.12
2016-06-05T01:06:11.514Z,63.02
2016-06-05T01:07:11.533Z,63.02
2016-06-05T01:08:11.566Z,63.12
2016-06-05T01:09:11.585Z,62.84
2016-06-05T01:10:11.619Z,62.84
2016-06-05T01:11:11.637Z,62.93
2016-06-05T01:12:11.671Z,62.84
2016-06-05T01:13:11.533Z,62.93
2016-06-05T01:14:11.707Z,62.84
2016-06-05T01:15:11.741Z,62.93
2016-06-05T01:16:11.760Z,62.84
2016-06-05T01:17:11.793Z,62.93
2016-06-05T01:18:11.827Z,62.74
2016-06-05T01:19:11.830Z,62.93
2016-06-05T01:20:11.865Z,62.84
2016-06-05T01:21:11.899Z,62.64
2016-06-05T01:22:11.916Z,63.02
2016-06-05T01:23:11.935Z,62.84
2016-06-05T01:24:11.968Z,62.84
2016-06-05T01:25:12.003Z,62.84
2016-06-05T01:26:12.052Z,63.02
2016-06-05T01:27:12.039Z,62.74
2016-06-05T01:28:12.276Z,62.84
2016-06-05T01:29:12.092Z,62.84
2016-06-05T01:30:12.125Z,62.84
2016-06-05T01:31:12.145Z,62.84
2016-06-05T01:32:12.178Z,62.84
2016-06-05T01:33:12.195Z,62.93
2016-06-05T01:34:12.214Z,62.84
2016-06-05T01:35:12.248Z,62.84
2016-06-05T01:36:12.267Z,62.84
2016-06-05T01:37:12.301Z,62.93
2016-06-05T01:38:12.334Z,62.93
2016-06-05T01:39:12.352Z,62.84
2016-06-05T01:40:12.372Z,62.64
2016-06-05T01:41:12.405Z,63.02
2016-06-05T01:42:12.424Z,62.64
2016-06-05T01:43:12.473Z,62.64
2016-06-05T01:44:12.492Z,62.84
2016-06-05T01:45:12.510Z,63.02
2016-06-05T01:46:12.527Z,63.02
2016-06-05T01:47:12.546Z,63.02
2016-06-05T01:48:12.580Z,62.84
2016-06-05T01:49:12.613Z,62.55
2016-06-05T01:50:12.633Z,63.02
2016-06-05T01:51:12.651Z,63.12
2016-06-05T01:52:12.685Z,63.02
2016-06-05T01:53:12.734Z,62.93
2016-06-05T01:54:12.721Z,62.84
2016-06-05T01:55:12.755Z,63.12
2016-06-05T01:56:12.774Z,62.84
2016-06-05T01:57:12.807Z,62.74
2016-06-05T01:58:12.669Z,63.12
2016-06-05T01:59:12.859Z,62.55
2016-06-05T02:00:12.879Z,63.02
2016-06-05T02:01:12.912Z,62.84
2016-06-05T02:02:12.931Z,62.74
2016-06-05T02:03:12.965Z,62.93
2016-06-05T02:04:12.983Z,62.93
2016-06-05T02:05:13.017Z,62.84
2016-06-05T02:06:13.034Z,62.84
2016-06-05T02:07:13.069Z,62.93
2016-06-05T02:08:13.087Z,62.84
2016-06-05T02:09:13.105Z,62.84
2016-06-05T02:10:13.155Z,63.02
2016-06-05T02:11:13.158Z,62.84
2016-06-05T02:12:13.192Z,62.84
2016-06-05T02:13:13.975Z,62.84
2016-06-05T02:14:13.228Z,62.74
2016-06-05T02:15:13.262Z,63.12
2016-06-05T02:16:13.296Z,62.74
2016-06-05T02:17:13.314Z,63.02
2016-06-05T02:18:13.363Z,62.93
2016-06-05T02:19:13.398Z,63.02
2016-06-05T02:20:13.401Z,62.64
2016-06-05T02:21:13.419Z,62.64
2016-06-05T02:22:13.437Z,62.45
2016-06-05T02:23:13.471Z,63.12
2016-06-05T02:24:13.489Z,62.45
2016-06-05T02:25:13.523Z,63.02
2016-06-05T02:26:13.558Z,62.55
2016-06-05T02:27:13.560Z,62.74
2016-06-05T02:28:13.609Z,62.74
2016-06-05T02:29:13.612Z,62.84
2016-06-05T02:30:13.646Z,62.64
2016-06-05T02:31:13.665Z,62.64
2016-06-05T02:32:13.698Z,62.74
2016-06-05T02:33:13.717Z,63.02
2016-06-05T02:34:13.751Z,62.64
2016-06-05T02:35:13.769Z,62.64
2016-06-05T02:36:13.787Z,62.74
2016-06-05T02:37:13.822Z,62.93
2016-06-05T02:38:13.700Z,62.64
2016-06-05T02:39:13.873Z,62.74
2016-06-05T02:40:13.891Z,62.55
2016-06-05T02:41:13.926Z,63.02
2016-06-05T02:42:13.944Z,62.93
2016-06-05T02:43:13.993Z,63.12
2016-06-05T02:44:13.997Z,62.64
2016-06-05T02:45:14.014Z,62.84
2016-06-05T02:46:14.049Z,62.84
2016-06-05T02:47:14.067Z,62.64
2016-06-05T02:48:14.102Z,62.93
2016-06-05T02:49:14.119Z,63.12
2016-06-05T02:50:14.153Z,62.64
2016-06-05T02:51:14.172Z,63.02
2016-06-05T02:52:14.206Z,63.12
2016-06-05T02:53:14.224Z,62.84
2016-06-05T02:54:14.242Z,62.45
2016-06-05T02:55:14.277Z,63.02
2016-06-05T02:56:14.310Z,62.64
2016-06-05T02:57:14.328Z,62.64
2016-06-05T02:58:14.347Z,62.45
2016-06-05T02:59:14.224Z,62.64
2016-06-05T03:00:14.398Z,62.84
2016-06-05T03:01:14.432Z,62.84
2016-06-05T03:02:14.467Z,62.64
2016-06-05T03:03:14.485Z,62.45
2016-06-05T03:04:14.503Z,62.64
2016-06-05T03:05:14.522Z,62.93
2016-06-05T03:06:14.555Z,62.55
2016-06-05T03:07:14.573Z,62.64
2016-06-05T03:08:14.623Z,62.84
2016-06-05T03:09:14.625Z,62.64
2016-06-05T03:10:14.661Z,63.12
2016-06-05T03:11:14.679Z,62.45
2016-06-05T03:12:14.712Z,62.93
2016-06-05T03:13:14.840Z,62.84
2016-06-05T03:14:14.764Z,62.74
2016-06-05T03:15:14.783Z,62.93
2016-06-05T03:16:14.817Z,63.51
2016-06-05T03:17:14.850Z,63.51
2016-06-05T03:18:14.869Z,62.93
2016-06-05T03:19:14.887Z,62.84
2016-06-05T03:20:14.905Z,62.64
2016-06-05T03:21:14.783Z,62.55
2016-06-05T03:22:14.957Z,62.45
2016-06-05T03:23:14.991Z,62.93
2016-06-05T03:24:15.010Z,62.84
2016-06-05T03:25:15.044Z,62.84
2016-06-05T03:26:15.063Z,62.93
2016-06-05T03:27:15.081Z,63.02
2016-06-05T03:28:15.115Z,62.93
2016-06-05T03:29:15.133Z,62.74
2016-06-05T03:30:15.167Z,62.45
2016-06-05T03:31:15.185Z,63.12
2016-06-05T03:32:15.220Z,62.64
2016-06-05T03:33:15.237Z,62.74
2016-06-05T03:34:15.256Z,62.64
2016-06-05T03:35:15.290Z,62.64
2016-06-05T03:36:15.309Z,62.84
2016-06-05T03:37:15.342Z,62.93
2016-06-05T03:38:15.361Z,63.12
2016-06-05T03:39:15.395Z,62.93
2016-06-05T03:40:15.428Z,62.84
2016-06-05T03:41:15.462Z,62.64
2016-06-05T03:42:15.464Z,62.64
2016-06-05T03:43:15.343Z,63.02
2016-06-05T03:44:15.517Z,63.02
2016-06-05T03:45:15.535Z,62.93
2016-06-05T03:46:15.413Z,62.93
2016-06-05T03:47:15.588Z,62.84
2016-06-05T03:48:15.622Z,63.02
2016-06-05T03:49:15.641Z,63.12
2016-06-05T03:50:15.689Z,63.02
2016-06-05T03:51:15.692Z,63.12
2016-06-05T03:52:15.711Z,63.22
2016-06-05T03:53:15.744Z,62.74
2016-06-05T03:54:15.763Z,62.93
2016-06-05T03:55:15.797Z,62.93
2016-06-05T03:56:15.815Z,63.12
2016-06-05T03:57:15.849Z,63.12
2016-06-05T03:58:15.882Z,62.93
2016-06-05T03:59:15.901Z,62.64
2016-06-05T04:00:15.920Z,62.64
2016-06-05T04:01:15.954Z,63.12
2016-06-05T04:02:15.972Z,62.64
2016-06-05T04:03:15.990Z,62.55
2016-06-05T04:04:16.024Z,62.45
2016-06-05T04:05:16.059Z,62.74
2016-06-05T04:06:16.076Z,62.64
2016-06-05T04:07:16.095Z,62.64
2016-06-05T04:08:16.128Z,62.84
2016-06-05T04:09:16.147Z,63.02
2016-06-05T04:10:16.181Z,62.93
2016-06-05T04:11:16.200Z,62.64
2016-06-05T04:12:16.077Z,62.55
2016-06-05T04:13:16.283Z,62.74
2016-06-05T04:14:16.286Z,62.64
2016-06-05T04:15:16.304Z,63.12
2016-06-05T04:16:16.338Z,63.02
2016-06-05T04:17:16.363Z,62.84
2016-06-05T04:18:16.409Z,62.64
2016-06-05T04:19:16.470Z,62.55
2016-06-05T04:20:16.517Z,62.74
2016-06-05T04:21:16.578Z,62.84
2016-06-05T04:22:16.620Z,62.84
2016-06-05T04:23:16.647Z,62.45
2016-06-05T04:24:16.691Z,63.02
2016-06-05T04:25:16.720Z,62.55
2016-06-05T04:26:16.764Z,62.84
2016-06-05T04:27:16.791Z,62.93
2016-06-05T04:28:16.829Z,62.84
2016-06-05T04:29:16.851Z,63.12
2016-06-05T04:30:16.889Z,62.74
2016-06-05T04:31:16.911Z,63.12
2016-06-05T04:32:16.932Z,62.84
2016-06-05T04:33:16.967Z,63.02
2016-06-05T04:34:16.987Z,62.84
2016-06-05T04:35:17.021Z,62.93
2016-06-05T04:36:17.041Z,62.84
2016-06-05T04:37:17.075Z,62.93
2016-06-05T04:38:17.111Z,62.84
2016-06-05T04:39:17.128Z,62.93
2016-06-05T04:40:17.148Z,62.84
2016-06-05T04:41:17.166Z,62.84
2016-06-05T04:42:17.201Z,63.02
2016-06-05T04:43:17.439Z,63.02
2016-06-05T04:44:17.255Z,62.93
2016-06-05T04:45:17.272Z,62.93
2016-06-05T04:46:17.307Z,62.93
2016-06-05T04:47:17.325Z,62.93
2016-06-05T04:48:17.359Z,62.74
2016-06-05T04:49:17.378Z,63.02
2016-06-05T04:50:17.411Z,62.93
2016-06-05T04:51:17.430Z,62.93
2016-06-05T04:52:17.464Z,62.84
2016-06-05T04:53:17.483Z,62.84
2016-06-05T04:54:17.516Z,62.26
2016-06-05T04:55:17.535Z,62.55
2016-06-05T04:56:17.568Z,62.45
2016-06-05T04:57:17.587Z,62.64
2016-06-05T04:58:17.621Z,62.68
2016-06-05T04:59:17.639Z,62.93
2016-06-05T05:00:17.657Z,62.93
2016-06-05T05:01:17.707Z,62.45
2016-06-05T05:02:17.710Z,62.35
2016-06-05T05:03:17.727Z,62.64
2016-06-05T05:04:17.762Z,62.55
2016-06-05T05:05:17.780Z,62.58
2016-06-05T05:06:17.815Z,62.16
2016-06-05T05:07:17.832Z,62.74
2016-06-05T05:08:17.866Z,62.48
2016-06-05T05:09:17.885Z,62.48
2016-06-05T05:10:17.919Z,62.38
2016-06-05T05:11:17.937Z,62.38
2016-06-05T05:12:17.955Z,62.48
2016-06-05T05:13:18.005Z,62.19
2016-06-05T05:14:18.007Z,62
2016-06-05T05:15:18.042Z,62.1
2016-06-05T05:16:18.059Z,62.19
2016-06-05T05:17:18.094Z,62.29
2016-06-05T05:18:18.112Z,62.35
2016-06-05T05:19:17.989Z,62.38
2016-06-05T05:20:18.164Z,62.38
2016-06-05T05:21:18.214Z,62.29
2016-06-05T05:22:18.217Z,62.29
2016-06-05T05:23:18.251Z,62.29
2016-06-05T05:24:18.269Z,62.48
2016-06-05T05:25:18.303Z,62.19
2016-06-05T05:26:18.322Z,62.68
2016-06-05T05:27:18.355Z,61.91
2016-06-05T05:28:18.874Z,62.48
2016-06-05T05:29:18.407Z,61.61
2016-06-05T05:30:18.425Z,61.52
2016-06-05T05:31:18.444Z,61.33
2016-06-05T05:32:18.478Z,61.43
2016-06-05T05:33:18.496Z,61.43
2016-06-05T05:34:18.515Z,61.71
2016-06-05T05:35:18.548Z,61.61
2016-06-05T05:36:18.582Z,61.61
2016-06-05T05:37:18.601Z,61.52
2016-06-05T05:38:18.635Z,61.61
2016-06-05T05:39:18.668Z,61.52
2016-06-05T05:40:18.687Z,61.61
2016-06-05T05:41:18.705Z,61.81
2016-06-05T05:42:18.724Z,61.81
2016-06-05T05:43:18.757Z,61.52
2016-06-05T05:44:18.775Z,61.61
2016-06-05T05:45:18.810Z,61.61
2016-06-05T05:46:18.828Z,61.71
2016-06-05T05:47:18.846Z,61.61
2016-06-05T05:48:18.880Z,61.71
2016-06-05T05:49:18.898Z,61.52
2016-06-05T05:50:18.933Z,61.33
2016-06-05T05:51:18.951Z,61.23
2016-06-05T05:52:18.984Z,61.33
2016-06-05T05:53:19.019Z,61.33
2016-06-05T05:54:19.037Z,61.71
2016-06-05T05:55:19.086Z,61.14
2016-06-05T05:56:19.089Z,61.43
2016-06-05T05:57:19.108Z,60.94
2016-06-05T05:58:19.142Z,60.94
2016-06-05T05:59:19.160Z,61.23
2016-06-05T06:00:19.272Z,61.33
2016-06-05T06:01:19.213Z,61.33
2016-06-05T06:02:19.246Z,61.23
2016-06-05T06:03:19.264Z,61.04
2016-06-05T06:04:19.283Z,60.94
2016-06-05T06:05:19.316Z,61.23
2016-06-05T06:06:19.335Z,61.23
2016-06-05T06:07:19.368Z,60.75
2016-06-05T06:08:19.387Z,60.85
2016-06-05T06:09:19.421Z,60.66
2016-06-05T06:10:19.439Z,61.14
2016-06-05T06:11:19.473Z,61.04
2016-06-05T06:12:19.492Z,61.14
2016-06-05T06:13:19.729Z,61.04
2016-06-05T06:14:19.543Z,60.75
2016-06-05T06:15:19.578Z,61.04
2016-06-05T06:16:19.596Z,61.33
2016-06-05T06:17:19.630Z,61.23
2016-06-05T06:18:19.648Z,60.66
2016-06-05T06:19:19.682Z,60.66
2016-06-05T06:20:19.701Z,61.16
2016-06-05T06:21:19.719Z,60.56
2016-06-05T06:22:19.753Z,61.23
2016-06-05T06:23:19.771Z,60.39
2016-06-05T06:24:19.806Z,61.16
2016-06-05T06:25:19.823Z,60.59
2016-06-05T06:26:19.857Z,60.39
2016-06-05T06:27:19.875Z,60.39
2016-06-05T06:28:19.910Z,60.69
2016-06-05T06:29:19.927Z,60.59
2016-06-05T06:30:19.961Z,60.78
2016-06-05T06:31:19.980Z,60.88
2016-06-05T06:32:20.014Z,60.88
2016-06-05T06:33:20.032Z,60.21
2016-06-05T06:34:20.051Z,60.69
2016-06-05T06:35:20.085Z,60.39
2016-06-05T06:36:20.102Z,60.49
2016-06-05T06:37:20.137Z,60.59
2016-06-05T06:38:20.155Z,60.59
2016-06-05T06:39:20.190Z,60.69
2016-06-05T06:40:20.207Z,60.3
2016-06-05T06:41:20.241Z,60.11
2016-06-05T06:42:20.260Z,60.49
2016-06-05T06:43:20.637Z,60.3
2016-06-05T06:44:20.312Z,60.3
2016-06-05T06:45:20.346Z,60.3
2016-06-05T06:46:20.364Z,60.49
2016-06-05T06:47:20.383Z,59.53
2016-06-05T06:48:20.417Z,59.82
2016-06-05T06:49:20.450Z,59.63
2016-06-05T06:50:20.469Z,59.82
2016-06-05T06:51:20.503Z,60.01
2016-06-05T06:52:20.521Z,60.01
2016-06-05T06:53:20.539Z,60.11
2016-06-05T06:54:20.573Z,60.3
2016-06-05T06:55:20.591Z,60.3
2016-06-05T06:56:20.625Z,60.3
2016-06-05T06:57:20.659Z,60.01
2016-06-05T06:58:20.678Z,59.72
2016-06-05T06:59:20.696Z,59.92
2016-06-05T07:00:20.730Z,60.01
2016-06-05T07:01:20.749Z,59.63
2016-06-05T07:02:20.782Z,59.63
2016-06-05T07:03:20.800Z,59.92
2016-06-05T07:04:20.850Z,59.66
2016-06-05T07:05:20.853Z,59.75
2016-06-05T07:06:20.888Z,59.34
2016-06-05T07:07:20.905Z,59.53
2016-06-05T07:08:20.939Z,59.34
2016-06-05T07:09:20.958Z,59.47
2016-06-05T07:10:20.991Z,59.37
2016-06-05T07:11:21.009Z,59.34
2016-06-05T07:12:21.043Z,59.17
2016-06-05T07:13:21.063Z,59.66
2016-06-05T07:14:20.940Z,59.37
2016-06-05T07:15:21.115Z,59.66
2016-06-05T07:16:21.132Z,59.27
2016-06-05T07:17:21.166Z,59.17
2016-06-05T07:18:21.201Z,59.17
2016-06-05T07:19:21.235Z,59.17
2016-06-05T07:20:21.253Z,59.08
2016-06-05T07:21:21.270Z,59.27
2016-06-05T07:22:21.305Z,59.08
2016-06-05T07:23:21.323Z,59.08
2016-06-05T07:24:21.389Z,58.79
2016-06-05T07:25:21.375Z,58.4
2016-06-05T07:26:21.409Z,58.89
2016-06-05T07:27:21.428Z,58.4
2016-06-05T07:28:21.462Z,58.5
2016-06-05T07:29:21.480Z,58.7
2016-06-05T07:30:21.514Z,58.79
2016-06-05T07:31:21.533Z,58.7
2016-06-05T07:32:21.566Z,58.98
2016-06-05T07:33:21.647Z,58.98
2016-06-05T07:34:21.619Z,58.7
2016-06-05T07:35:21.636Z,58.22
2016-06-05T07:36:21.671Z,58.02
2016-06-05T07:37:21.704Z,58.02
2016-06-05T07:38:21.724Z,58.02
2016-06-05T07:39:21.741Z,58.53
2016-06-05T07:40:21.775Z,58.02
2016-06-05T07:41:21.793Z,58.02
2016-06-05T07:42:21.827Z,58.12
2016-06-05T07:43:22.627Z,58.24
2016-06-05T07:44:22.926Z,58.22
2016-06-05T07:45:21.898Z,58.31
2016-06-05T07:46:21.932Z,58.22
2016-06-05T07:47:21.966Z,58.02
2016-06-05T07:48:21.984Z,57.95
2016-06-05T07:49:22.003Z,57.83
2016-06-05T07:50:22.052Z,58.22
2016-06-05T07:51:22.070Z,57.95
2016-06-05T07:52:22.089Z,58.15
2016-06-05T07:53:22.123Z,57.95
2016-06-05T07:54:22.141Z,57.57
2016-06-05T07:55:22.175Z,58.15
2016-06-05T07:56:22.193Z,57.83
2016-06-05T07:57:22.227Z,57.86
2016-06-05T07:58:22.653Z,57.86
2016-06-05T07:59:22.280Z,57.86
2016-06-05T08:00:22.313Z,57.57
2016-06-05T08:01:22.348Z,57.57
2016-06-05T08:02:22.350Z,57.57
2016-06-05T08:03:22.383Z,57.37
2016-06-05T08:04:22.418Z,57.47
2016-06-05T08:05:22.436Z,57.67
2016-06-05T08:06:22.455Z,57.28
2016-06-05T08:07:22.488Z,57.28
2016-06-05T08:08:22.522Z,57.57
2016-06-05T08:09:22.541Z,57.57
2016-06-05T08:10:22.574Z,57.37
2016-06-05T08:11:22.593Z,57.57
2016-06-05T08:12:22.627Z,57.47
2016-06-05T08:13:23.005Z,57.47
2016-06-05T08:14:22.679Z,57.37
2016-06-05T08:15:22.697Z,57.57
2016-06-05T08:16:22.731Z,57.86
2016-06-05T08:17:22.749Z,57.47
2016-06-05T08:18:22.784Z,57.28
2016-06-05T08:19:22.817Z,56.8
2016-06-05T08:20:22.851Z,57.09
2016-06-05T08:21:22.885Z,56.99
2016-06-05T08:22:22.887Z,56.99
2016-06-05T08:23:22.923Z,57.09
2016-06-05T08:24:22.940Z,56.9
2016-06-05T08:25:22.975Z,57.09
2016-06-05T08:26:22.992Z,56.99
2016-06-05T08:27:23.026Z,56.9
2016-06-05T08:28:23.201Z,56.9
2016-06-05T08:29:23.079Z,56.7
2016-06-05T08:30:23.097Z,57.18
2016-06-05T08:31:23.131Z,57.02
2016-06-05T08:32:23.181Z,56.99
2016-06-05T08:33:23.184Z,57.09
2016-06-05T08:34:23.217Z,56.99
2016-06-05T08:35:23.252Z,56.92
2016-06-05T08:36:23.269Z,56.41
2016-06-05T08:37:23.288Z,56.35
2016-06-05T08:38:23.321Z,56.25
2016-06-05T08:39:23.340Z,56.44
2016-06-05T08:40:23.374Z,56.15
2016-06-05T08:41:23.393Z,55.77
2016-06-05T08:42:23.427Z,55.67
2016-06-05T08:43:23.304Z,55.87
2016-06-05T08:44:23.479Z,55.96
2016-06-05T08:45:23.513Z,55.38
2016-06-05T08:46:23.531Z,55.57
2016-06-05T08:47:23.565Z,55.77
2016-06-05T08:48:23.599Z,56.05
2016-06-05T08:49:23.617Z,55.48
2016-06-05T08:50:23.651Z,55.19
2016-06-05T08:51:23.670Z,55.19
2016-06-05T08:52:23.687Z,55.38
2016-06-05T08:53:23.737Z,55.19
2016-06-05T08:54:23.770Z,55.38
2016-06-05T08:55:23.773Z,55.19
2016-06-05T08:56:23.808Z,55.48
2016-06-05T08:57:23.842Z,54.71
2016-06-05T08:58:23.859Z,54.9
2016-06-05T08:59:23.894Z,54.61
2016-06-05T09:00:23.912Z,54.52
2016-06-05T09:01:23.947Z,54.71
2016-06-05T09:02:23.964Z,54.54
2016-06-05T09:03:23.998Z,54.54
2016-06-05T09:04:24.017Z,54.35
2016-06-05T09:05:24.051Z,54.16
2016-06-05T09:06:24.085Z,54.54
2016-06-05T09:07:24.103Z,54.44
2016-06-05T09:08:24.137Z,54.06
2016-06-05T09:09:24.155Z,54.16
2016-06-05T09:10:24.189Z,53.87
2016-06-05T09:11:24.207Z,53.77
2016-06-05T09:12:24.272Z,53.19
2016-06-05T09:13:24.275Z,53.48
2016-06-05T09:14:24.293Z,53.67
2016-06-05T09:15:24.327Z,53.39
2016-06-05T09:16:24.346Z,53.48
2016-06-05T09:17:24.380Z,53.67
2016-06-05T09:18:24.398Z,52.81
2016-06-05T09:19:24.432Z,52.91
2016-06-05T09:20:24.451Z,53.09
2016-06-05T09:21:24.485Z,52.93
2016-06-05T09:22:24.534Z,52.93
2016-06-05T09:23:24.536Z,52.93
2016-06-05T09:24:24.570Z,52.55
2016-06-05T09:25:24.590Z,52.73
2016-06-05T09:26:24.623Z,52.45
2016-06-05T09:27:24.656Z,52.93
2016-06-05T09:28:24.675Z,52.83
2016-06-05T09:29:24.756Z,52.06
2016-06-05T09:30:24.743Z,52.25
2016-06-05T09:31:24.761Z,52.16
2016-06-05T09:32:24.780Z,52.25
2016-06-05T09:33:24.814Z,52.25
2016-06-05T09:34:24.832Z,52.16
2016-06-05T09:35:24.866Z,51.58
2016-06-05T09:36:24.899Z,51.58
2016-06-05T09:37:24.918Z,51.77
2016-06-05T09:38:24.952Z,51.77
2016-06-05T09:39:24.970Z,51.68
2016-06-05T09:40:25.004Z,52.06
2016-06-05T09:41:25.023Z,51.39
2016-06-05T09:42:25.057Z,51.29
2016-06-05T09:43:24.934Z,51.1
2016-06-05T09:44:25.108Z,51.32
2016-06-05T09:45:25.143Z,51.03
2016-06-05T09:46:25.177Z,50.84
2016-06-05T09:47:25.195Z,51.12
2016-06-05T09:48:25.229Z,51.22
2016-06-05T09:49:25.247Z,51.12
2016-06-05T09:50:25.282Z,50.54
2016-06-05T09:51:25.299Z,50.16
2016-06-05T09:52:25.334Z,50.74
2016-06-05T09:53:25.351Z,50.35
2016-06-05T09:54:25.385Z,50.35
2016-06-05T09:55:25.420Z,50.35
2016-06-05T09:56:25.438Z,49.96
2016-06-05T09:57:25.472Z,50.47
2016-06-05T09:58:26.350Z,50.18
2016-06-05T09:59:25.524Z,50.28
2016-06-05T10:00:25.559Z,49.8
2016-06-05T10:01:25.576Z,50.18
2016-06-05T10:02:25.611Z,49.41
2016-06-05T10:03:25.644Z,49.12
2016-06-05T10:04:25.662Z,49.8
2016-06-05T10:05:25.680Z,49.51
2016-06-05T10:06:25.715Z,49.02
2016-06-05T10:07:25.764Z,49.51
2016-06-05T10:08:25.767Z,49.6
2016-06-05T10:09:25.800Z,49.32
2016-06-05T10:10:25.835Z,48.93
2016-06-05T10:11:25.853Z,49.02
2016-06-05T10:12:25.888Z,49.22
2016-06-05T10:13:26.499Z,48.76
2016-06-05T10:14:25.938Z,48.76
2016-06-05T10:15:25.973Z,49.05
2016-06-05T10:16:26.023Z,48.95
2016-06-05T10:17:26.026Z,48.66
2016-06-05T10:18:26.059Z,48.66
2016-06-05T10:19:26.109Z,48.47
2016-06-05T10:20:26.112Z,48.76
2016-06-05T10:21:26.129Z,48.66
2016-06-05T10:22:26.007Z,48.47
2016-06-05T10:23:26.182Z,48.57
2016-06-05T10:24:26.216Z,48.28
2016-06-05T10:25:26.235Z,48.18
2016-06-05T10:26:26.268Z,48.18
2016-06-05T10:27:26.302Z,48.08
2016-06-05T10:28:26.852Z,48.28
2016-06-05T10:29:26.355Z,47.8
2016-06-05T10:30:26.436Z,47.6
2016-06-05T10:31:26.406Z,47.6
2016-06-05T10:32:26.441Z,47.43
2016-06-05T10:33:26.475Z,47.43
2016-06-05T10:34:26.493Z,47.81
2016-06-05T10:35:26.511Z,47.63
2016-06-05T10:36:26.545Z,47.33
2016-06-05T10:37:26.580Z,47.53
2016-06-05T10:38:26.597Z,47.05
2016-06-05T10:39:26.631Z,47.33
2016-06-05T10:40:26.666Z,47.24
2016-06-05T10:41:26.683Z,46.95
2016-06-05T10:42:26.718Z,46.75
2016-06-05T10:43:26.736Z,46.66
2016-06-05T10:44:26.769Z,46.47
2016-06-05T10:45:26.805Z,46.47
2016-06-05T10:46:26.822Z,46.58
2016-06-05T10:47:26.856Z,46.68
2016-06-05T10:48:26.874Z,46.49
2016-06-05T10:49:26.908Z,46.58
2016-06-05T10:50:26.943Z,46.39
2016-06-05T10:51:26.976Z,46.39
2016-06-05T10:52:26.995Z,46.3
2016-06-05T10:53:27.043Z,46.39
2016-06-05T10:54:27.047Z,46.3
2016-06-05T10:55:27.065Z,45.81
2016-06-05T10:56:27.115Z,46.1
2016-06-05T10:57:27.133Z,46
2016-06-05T10:58:27.167Z,46.1
2016-06-05T10:59:27.185Z,45.91
2016-06-05T11:00:27.219Z,45.62
2016-06-05T11:01:27.237Z,46
2016-06-05T11:02:27.272Z,46.2
2016-06-05T11:03:27.290Z,46.2
2016-06-05T11:04:27.324Z,46.1
2016-06-05T11:05:27.358Z,46
2016-06-05T11:06:27.375Z,46.1
2016-06-05T11:07:27.410Z,46
2016-06-05T11:08:27.444Z,45.91
2016-06-05T11:09:27.462Z,45.91
2016-06-05T11:10:27.497Z,46
2016-06-05T11:11:27.514Z,46.1
2016-06-05T11:12:27.549Z,46.1
2016-06-05T11:13:27.583Z,46.1
2016-06-05T11:14:27.601Z,46
2016-06-05T11:15:27.634Z,46.1
2016-06-05T11:16:27.652Z,46.1
2016-06-05T11:17:27.687Z,46
2016-06-05T11:18:27.705Z,46
2016-06-05T11:19:27.739Z,46.2
2016-06-05T11:20:27.773Z,46.1
2016-06-05T11:21:27.791Z,46.3
2016-06-05T11:22:27.825Z,45.81
2016-06-05T11:23:27.843Z,46.2
2016-06-05T11:24:27.877Z,46.2
2016-06-05T11:25:27.912Z,46.1
2016-06-05T11:26:27.930Z,46.3
2016-06-05T11:27:27.965Z,46
2016-06-05T11:28:27.998Z,46.2
2016-06-05T11:29:28.016Z,46.1
2016-06-05T11:30:28.050Z,46.08
2016-06-05T11:31:28.068Z,46
2016-06-05T11:32:28.103Z,46.1
2016-06-05T11:33:28.136Z,46.08
2016-06-05T11:34:28.154Z,46.1
2016-06-05T11:35:28.189Z,46.39
2016-06-05T11:36:28.222Z,46.37
2016-06-05T11:37:28.241Z,46.39
2016-06-05T11:38:28.275Z,46.37
2016-06-05T11:39:28.325Z,46.47
2016-06-05T11:40:28.374Z,46.39
2016-06-05T11:41:28.345Z,46.37
2016-06-05T11:42:28.379Z,46.27
2016-06-05T11:43:28.413Z,46.27
2016-06-05T11:44:28.431Z,46.47
2016-06-05T11:45:28.466Z,46.85
2016-06-05T11:46:28.499Z,46.85
2016-06-05T11:47:28.518Z,46.85
2016-06-05T11:48:28.552Z,46.85
2016-06-05T11:49:28.601Z,46.85
2016-06-05T11:50:28.604Z,46.56
2016-06-05T11:51:28.637Z,46.56
2016-06-05T11:52:28.656Z,46.37
2016-06-05T11:53:28.691Z,46.37
2016-06-05T11:54:28.708Z,46.66
2016-06-05T11:55:28.742Z,46.85
2016-06-05T11:56:28.776Z,46.56
2016-06-05T11:57:28.795Z,46.56
2016-06-05T11:58:29.109Z,46.66
2016-06-05T11:59:28.846Z,46.75
2016-06-05T12:00:28.881Z,46.56
2016-06-05T12:01:28.898Z,46.66
2016-06-05T12:02:28.948Z,46.66
2016-06-05T12:03:28.967Z,46.66
2016-06-05T12:04:29.000Z,46.66
2016-06-05T12:05:29.020Z,46.56
2016-06-05T12:06:29.070Z,46.75
2016-06-05T12:07:29.086Z,46.85
2016-06-05T12:08:29.106Z,46.95
2016-06-05T12:09:29.124Z,47.05
2016-06-05T12:10:29.158Z,47.14
2016-06-05T12:11:29.192Z,47.33
2016-06-05T12:12:29.211Z,47.53
2016-06-05T12:13:29.244Z,47.14
2016-06-05T12:14:29.121Z,47.33
2016-06-05T12:15:29.297Z,47.14
2016-06-05T12:16:29.314Z,47.24
2016-06-05T12:17:29.348Z,47.05
2016-06-05T12:18:29.227Z,46.85
2016-06-05T12:19:29.400Z,47.02
2016-06-05T12:20:29.435Z,46.85
2016-06-05T12:21:29.453Z,47.05
2016-06-05T12:22:29.487Z,47.14
2016-06-05T12:23:29.521Z,47.14
2016-06-05T12:24:29.538Z,47.33
2016-06-05T12:25:29.574Z,47.33
2016-06-05T12:26:29.606Z,47.14
2016-06-05T12:27:29.625Z,47.05
2016-06-05T12:28:29.659Z,47.05
2016-06-05T12:29:29.677Z,47.05
2016-06-05T12:30:29.711Z,47.14
2016-06-05T12:31:29.745Z,46.85
2016-06-05T12:32:29.779Z,47.14
2016-06-05T12:33:29.798Z,46.95
2016-06-05T12:34:29.816Z,47.14
2016-06-05T12:35:29.850Z,47.05
2016-06-05T12:36:29.883Z,46.85
2016-06-05T12:37:29.903Z,47.43
2016-06-05T12:38:29.936Z,47.14
2016-06-05T12:39:29.954Z,47.33
2016-06-05T12:40:31.050Z,47.05
2016-06-05T12:41:30.023Z,47.05
2016-06-05T12:42:30.041Z,47.14
2016-06-05T12:43:30.075Z,47.05
2016-06-05T12:44:30.093Z,47.33
2016-06-05T12:45:30.127Z,47.14
2016-06-05T12:46:30.145Z,47.02
2016-06-05T12:47:30.179Z,47.05
2016-06-05T12:48:30.213Z,47.14
2016-06-05T12:49:30.247Z,47.43
2016-06-05T12:50:30.280Z,46.95
2016-06-05T12:51:30.283Z,47.43
2016-06-05T12:52:30.318Z,47.14
2016-06-05T12:53:30.352Z,47.33
2016-06-05T12:54:30.385Z,47.33
2016-06-05T12:55:30.404Z,47.14